sensor_id;sensor_type;location;lat;lon;timestamp;pressure;altitude;pressure_sealevel;temperature;humidity
11856;BME280;5987;53.140;8.904;2023-03-22T00:02:17;100923.84;;;8.17;100.00
11856;BME280;5987;53.140;8.904;2023-03-22T00:05:23;100920.41;;;8.15;100.00
11856;BME280;5987;53.140;8.904;2023-03-22T00:08:26;100913.75;;;8.01;100.00
11856;BME280;5987;53.140;8.904;2023-03-22T00:11:30;100914.00;;;7.92;100.00
11856;BME280;5987;53.140;8.904;2023-03-22T00:14:33;100910.63;;;7.87;100.00
11856;BME280;5987;53.140;8.904;2023-03-22T00:17:37;100911.69;;;7.80;100.00
11856;BME280;5987;53.140;8.904;2023-03-22T00:20:47;100906.50;;;7.78;100.00
11856;BME280;5987;53.140;8.904;2023-03-22T00:23:51;100902.41;;;7.66;100.00
11856;BME280;5987;53.140;8.904;2023-03-22T00:26:55;100897.28;;;7.62;100.00
11856;BME280;5987;53.140;8.904;2023-03-22T00:29:59;100884.94;;;7.68;100.00
11856;BME280;5987;53.140;8.904;2023-03-22T00:33:03;100888.53;;;7.64;100.00
11856;BME280;5987;53.140;8.904;2023-03-22T00:36:11;100886.06;;;7.58;100.00
11856;BME280;5987;53.140;8.904;2023-03-22T00:39:15;100887.84;;;7.56;100.00
11856;BME280;5987;53.140;8.904;2023-03-22T00:42:18;100879.16;;;7.55;100.00
11856;BME280;5987;53.140;8.904;2023-03-22T00:45:22;100880.09;;;7.53;100.00
11856;BME280;5987;53.140;8.904;2023-03-22T00:48:26;100875.66;;;7.55;100.00
11856;BME280;5987;53.140;8.904;2023-03-22T00:51:30;100878.16;;;7.61;100.00
11856;BME280;5987;53.140;8.904;2023-03-22T00:54:34;100872.03;;;7.61;100.00
11856;BME280;5987;53.140;8.904;2023-03-22T00:57:37;100862.41;;;7.64;100.00
11856;BME280;5987;53.140;8.904;2023-03-22T01:00:41;100854.50;;;7.66;100.00
11856;BME280;5987;53.140;8.904;2023-03-22T01:03:46;100854.56;;;7.64;100.00
11856;BME280;5987;53.140;8.904;2023-03-22T01:06:53;100855.44;;;7.63;100.00
11856;BME280;5987;53.140;8.904;2023-03-22T01:10:00;100854.38;;;7.70;100.00
11856;BME280;5987;53.140;8.904;2023-03-22T01:13:04;100847.38;;;7.72;100.00
11856;BME280;5987;53.140;8.904;2023-03-22T01:16:09;100848.28;;;7.71;100.00
11856;BME280;5987;53.140;8.904;2023-03-22T01:19:12;100843.03;;;7.71;100.00
11856;BME280;5987;53.140;8.904;2023-03-22T01:22:18;100850.09;;;7.69;100.00
11856;BME280;5987;53.140;8.904;2023-03-22T01:25:21;100851.78;;;7.70;100.00
11856;BME280;5987;53.140;8.904;2023-03-22T01:28:25;100844.78;;;7.72;100.00
11856;BME280;5987;53.140;8.904;2023-03-22T01:31:28;100837.75;;;7.75;100.00
11856;BME280;5987;53.140;8.904;2023-03-22T01:34:32;100832.50;;;7.75;100.00
11856;BME280;5987;53.140;8.904;2023-03-22T01:37:37;100829.84;;;7.76;100.00
11856;BME280;5987;53.140;8.904;2023-03-22T01:40:41;100821.97;;;7.78;100.00
11856;BME280;5987;53.140;8.904;2023-03-22T01:43:44;100815.81;;;7.80;100.00
11856;BME280;5987;53.140;8.904;2023-03-22T01:46:49;100820.78;;;7.91;100.00
11856;BME280;5987;53.140;8.904;2023-03-22T01:49:53;100812.94;;;7.91;100.00
11856;BME280;5987;53.140;8.904;2023-03-22T01:52:59;100810.28;;;7.93;100.00
11856;BME280;5987;53.140;8.904;2023-03-22T01:56:07;100799.69;;;7.97;100.00
11856;BME280;5987;53.140;8.904;2023-03-22T01:59:13;100800.53;;;7.99;100.00
11856;BME280;5987;53.140;8.904;2023-03-22T02:02:17;100798.72;;;8.01;100.00
11856;BME280;5987;53.140;8.904;2023-03-22T02:05:21;100792.59;;;8.02;100.00
11856;BME280;5987;53.140;8.904;2023-03-22T02:08:28;100793.47;;;8.01;100.00
11856;BME280;5987;53.140;8.904;2023-03-22T02:11:36;100789.03;;;8.05;100.00
11856;BME280;5987;53.140;8.904;2023-03-22T02:14:59;100777.59;;;8.09;100.00
11856;BME280;5987;53.140;8.904;2023-03-22T02:18:25;100781.94;;;8.10;100.00
11856;BME280;5987;53.140;8.904;2023-03-22T02:22:05;100780.16;;;8.11;100.00
11856;BME280;5987;53.140;8.904;2023-03-22T02:29:15;100785.44;;;8.09;100.00
11856;BME280;5987;53.140;8.904;2023-03-22T02:33:11;100784.31;;;8.18;100.00
11856;BME280;5987;53.140;8.904;2023-03-22T02:36:48;100777.38;;;8.17;100.00
11856;BME280;5987;53.140;8.904;2023-03-22T02:40:05;100775.59;;;8.19;100.00
11856;BME280;5987;53.140;8.904;2023-03-22T02:43:21;100772.06;;;8.20;100.00
11856;BME280;5987;53.140;8.904;2023-03-22T02:46:39;100775.53;;;8.20;100.00
11856;BME280;5987;53.140;8.904;2023-03-22T02:49:54;100780.63;;;8.25;100.00
11856;BME280;5987;53.140;8.904;2023-03-22T02:53:06;100770.16;;;8.25;100.00
11856;BME280;5987;53.140;8.904;2023-03-22T02:56:18;100771.16;;;8.21;100.00
11856;BME280;5987;53.140;8.904;2023-03-22T02:59:25;100768.44;;;8.24;100.00
11856;BME280;5987;53.140;8.904;2023-03-22T03:02:31;100766.72;;;8.24;100.00
11856;BME280;5987;53.140;8.904;2023-03-22T03:05:38;100757.94;;;8.27;100.00
11856;BME280;5987;53.140;8.904;2023-03-22T03:08:47;100753.59;;;8.26;100.00
11856;BME280;5987;53.140;8.904;2023-03-22T03:11:54;100752.69;;;8.27;100.00
11856;BME280;5987;53.140;8.904;2023-03-22T03:14:58;100753.31;;;8.35;100.00
11856;BME280;5987;53.140;8.904;2023-03-22T03:18:18;100749.75;;;8.38;100.00
11856;BME280;5987;53.140;8.904;2023-03-22T03:21:35;100751.56;;;8.36;100.00
11856;BME280;5987;53.140;8.904;2023-03-22T03:24:50;100756.78;;;8.36;100.00
11856;BME280;5987;53.140;8.904;2023-03-22T03:28:04;100748.81;;;8.40;100.00
11856;BME280;5987;53.140;8.904;2023-03-22T03:31:26;100751.56;;;8.36;100.00
11856;BME280;5987;53.140;8.904;2023-03-22T03:34:38;100756.69;;;8.39;100.00
11856;BME280;5987;53.140;8.904;2023-03-22T03:37:50;100752.19;;;8.46;100.00
11856;BME280;5987;53.140;8.904;2023-03-22T03:41:00;100751.31;;;8.44;100.00
11856;BME280;5987;53.140;8.904;2023-03-22T03:44:06;100750.53;;;8.41;100.00
11856;BME280;5987;53.140;8.904;2023-03-22T03:47:12;100743.66;;;8.37;100.00
11856;BME280;5987;53.140;8.904;2023-03-22T03:50:16;100748.69;;;8.47;100.00
11856;BME280;5987;53.140;8.904;2023-03-22T03:53:20;100741.84;;;8.39;100.00
11856;BME280;5987;53.140;8.904;2023-03-22T03:56:23;100742.72;;;8.40;100.00
11856;BME280;5987;53.140;8.904;2023-03-22T03:59:30;100735.88;;;8.36;100.00
11856;BME280;5987;53.140;8.904;2023-03-22T04:02:33;100738.63;;;8.31;100.00
11856;BME280;5987;53.140;8.904;2023-03-22T04:05:37;100742.97;;;8.31;100.00
11856;BME280;5987;53.140;8.904;2023-03-22T04:08:41;100747.19;;;8.36;100.00
11856;BME280;5987;53.140;8.904;2023-03-22T04:11:46;100744.75;;;8.30;100.00
11856;BME280;5987;53.140;8.904;2023-03-22T04:14:51;100737.03;;;8.26;100.00
11856;BME280;5987;53.140;8.904;2023-03-22T04:17:57;100733.56;;;8.25;100.00
11856;BME280;5987;53.140;8.904;2023-03-22T04:21:00;100738.09;;;8.18;100.00
11856;BME280;5987;53.140;8.904;2023-03-22T04:24:05;100735.47;;;8.20;100.00
11856;BME280;5987;53.140;8.904;2023-03-22T04:27:09;100731.97;;;8.19;100.00
11856;BME280;5987;53.140;8.904;2023-03-22T04:30:14;100725.84;;;8.20;100.00
11856;BME280;5987;53.140;8.904;2023-03-22T04:33:20;100726.59;;;8.24;100.00
11856;BME280;5987;53.140;8.904;2023-03-22T04:36:25;100731.94;;;8.21;100.00
11856;BME280;5987;53.140;8.904;2023-03-22T04:39:32;100725.00;;;8.20;100.00
11856;BME280;5987;53.140;8.904;2023-03-22T04:42:35;100722.34;;;8.21;100.00
11856;BME280;5987;53.140;8.904;2023-03-22T04:45:40;100717.16;;;8.18;100.00
11856;BME280;5987;53.140;8.904;2023-03-22T04:48:45;100711.16;;;8.16;100.00
11856;BME280;5987;53.140;8.904;2023-03-22T04:51:48;100713.75;;;8.16;100.00
11856;BME280;5987;53.140;8.904;2023-03-22T04:54:52;100707.63;;;8.17;100.00
11856;BME280;5987;53.140;8.904;2023-03-22T04:57:56;100709.31;;;8.20;100.00
11856;BME280;5987;53.140;8.904;2023-03-22T05:01:02;100705.88;;;8.18;100.00
11856;BME280;5987;53.140;8.904;2023-03-22T05:04:06;100709.31;;;8.20;100.00
11856;BME280;5987;53.140;8.904;2023-03-22T05:07:09;100708.53;;;8.16;100.00
11856;BME280;5987;53.140;8.904;2023-03-22T05:10:13;100707.69;;;8.16;100.00
11856;BME280;5987;53.140;8.904;2023-03-22T05:13:16;100712.13;;;8.12;100.00
11856;BME280;5987;53.140;8.904;2023-03-22T05:16:22;100703.50;;;8.10;100.00
11856;BME280;5987;53.140;8.904;2023-03-22T05:19:26;100695.59;;;8.12;100.00
11856;BME280;5987;53.140;8.904;2023-03-22T05:22:38;100698.91;;;8.17;100.00
11856;BME280;5987;53.140;8.904;2023-03-22T05:25:42;100697.25;;;8.14;100.00
11856;BME280;5987;53.140;8.904;2023-03-22T05:28:53;100690.28;;;8.15;100.00
11856;BME280;5987;53.140;8.904;2023-03-22T05:31:58;100689.31;;;8.17;100.00
11856;BME280;5987;53.140;8.904;2023-03-22T05:35:03;100687.69;;;8.13;100.00
11856;BME280;5987;53.140;8.904;2023-03-22T05:38:09;100686.66;;;8.19;100.00
11856;BME280;5987;53.140;8.904;2023-03-22T05:41:13;100677.88;;;8.21;100.00
11856;BME280;5987;53.140;8.904;2023-03-22T05:44:17;100674.28;;;8.24;100.00
11856;BME280;5987;53.140;8.904;2023-03-22T05:47:22;100668.78;;;8.33;100.00
11856;BME280;5987;53.140;8.904;2023-03-22T05:50:26;100664.34;;;8.37;100.00
11856;BME280;5987;53.140;8.904;2023-03-22T05:53:29;100660.56;;;8.47;100.00
11856;BME280;5987;53.140;8.904;2023-03-22T05:56:34;100667.31;;;8.54;100.00
11856;BME280;5987;53.140;8.904;2023-03-22T05:59:38;100660.19;;;8.60;100.00
11856;BME280;5987;53.140;8.904;2023-03-22T06:02:45;100666.06;;;8.66;100.00
11856;BME280;5987;53.140;8.904;2023-03-22T06:05:49;100670.00;;;8.80;100.00
11856;BME280;5987;53.140;8.904;2023-03-22T06:08:55;100665.50;;;8.85;100.00
11856;BME280;5987;53.140;8.904;2023-03-22T06:12:17;100665.03;;;8.99;100.00
11856;BME280;5987;53.140;8.904;2023-03-22T06:15:23;100651.28;;;8.92;100.00
11856;BME280;5987;53.140;8.904;2023-03-22T06:18:29;100649.56;;;8.91;100.00
11856;BME280;5987;53.140;8.904;2023-03-22T06:21:33;100649.47;;;8.94;100.00
11856;BME280;5987;53.140;8.904;2023-03-22T06:24:36;100654.47;;;9.02;100.00
11856;BME280;5987;53.140;8.904;2023-03-22T06:27:41;100647.22;;;9.08;100.00
11856;BME280;5987;53.140;8.904;2023-03-22T06:30:45;100647.78;;;9.18;100.00
11856;BME280;5987;53.140;8.904;2023-03-22T06:33:50;100653.78;;;9.22;100.00
11856;BME280;5987;53.140;8.904;2023-03-22T06:36:57;100643.97;;;9.29;100.00
11856;BME280;5987;53.140;8.904;2023-03-22T06:40:00;100646.22;;;9.38;100.00
11856;BME280;5987;53.140;8.904;2023-03-22T06:43:04;100642.47;;;9.47;100.00
11856;BME280;5987;53.140;8.904;2023-03-22T06:46:08;100641.47;;;9.49;100.00
11856;BME280;5987;53.140;8.904;2023-03-22T06:49:13;100637.75;;;9.56;100.00
11856;BME280;5987;53.140;8.904;2023-03-22T06:52:18;100630.28;;;9.69;100.00
11856;BME280;5987;53.140;8.904;2023-03-22T06:55:22;100640.19;;;9.61;100.00
11856;BME280;5987;53.140;8.904;2023-03-22T06:58:25;100636.88;;;9.56;100.00
11856;BME280;5987;53.140;8.904;2023-03-22T07:01:29;100621.03;;;9.59;100.00
11856;BME280;5987;53.140;8.904;2023-03-22T07:04:34;100625.94;;;9.68;100.00
11856;BME280;5987;53.140;8.904;2023-03-22T07:07:38;100629.16;;;9.76;100.00
11856;BME280;5987;53.140;8.904;2023-03-22T07:10:41;100622.78;;;9.84;100.00
11856;BME280;5987;53.140;8.904;2023-03-22T07:13:45;100630.50;;;9.87;100.00
11856;BME280;5987;53.140;8.904;2023-03-22T07:16:49;100631.16;;;9.93;100.00
11856;BME280;5987;53.140;8.904;2023-03-22T07:19:54;100623.47;;;9.89;100.00
11856;BME280;5987;53.140;8.904;2023-03-22T07:22:57;100628.00;;;9.84;100.00
11856;BME280;5987;53.140;8.904;2023-03-22T07:26:01;100630.50;;;9.87;100.00
11856;BME280;5987;53.140;8.904;2023-03-22T07:29:05;100615.53;;;9.90;100.00
11856;BME280;5987;53.140;8.904;2023-03-22T07:32:09;100604.06;;;9.93;100.00
11856;BME280;5987;53.140;8.904;2023-03-22T07:35:15;100601.28;;;9.98;100.00
11856;BME280;5987;53.140;8.904;2023-03-22T07:38:20;100588.88;;;10.01;100.00
11856;BME280;5987;53.140;8.904;2023-03-22T07:41:23;100592.13;;;10.08;100.00
11856;BME280;5987;53.140;8.904;2023-03-22T07:44:29;100586.09;;;10.06;100.00
11856;BME280;5987;53.140;8.904;2023-03-22T07:47:33;100576.88;;;10.18;100.00
11856;BME280;5987;53.140;8.904;2023-03-22T07:50:45;100579.69;;;10.13;100.00
11856;BME280;5987;53.140;8.904;2023-03-22T07:53:48;100578.72;;;10.16;100.00
11856;BME280;5987;53.140;8.904;2023-03-22T07:56:52;100580.13;;;10.24;100.00
11856;BME280;5987;53.140;8.904;2023-03-22T07:59:56;100576.66;;;10.24;100.00
11856;BME280;5987;53.140;8.904;2023-03-22T08:03:00;100579.94;;;10.29;100.00
11856;BME280;5987;53.140;8.904;2023-03-22T08:06:07;100575.06;;;10.42;100.00
11856;BME280;5987;53.140;8.904;2023-03-22T08:09:11;100568.22;;;10.60;100.00
11856;BME280;5987;53.140;8.904;2023-03-22T08:12:14;100561.38;;;10.56;100.00
11856;BME280;5987;53.140;8.904;2023-03-22T08:15:22;100567.91;;;10.88;100.00
11856;BME280;5987;53.140;8.904;2023-03-22T08:18:26;100566.94;;;10.91;100.00
11856;BME280;5987;53.140;8.904;2023-03-22T08:21:31;100562.94;;;11.03;100.00
11856;BME280;5987;53.140;8.904;2023-03-22T08:24:34;100548.41;;;10.94;100.00
11856;BME280;5987;53.140;8.904;2023-03-22T08:27:38;100537.44;;;11.05;100.00
11856;BME280;5987;53.140;8.904;2023-03-22T08:30:42;100534.75;;;11.06;100.00
11856;BME280;5987;53.140;8.904;2023-03-22T08:33:46;100542.09;;;11.19;100.00
11856;BME280;5987;53.140;8.904;2023-03-22T08:36:51;100540.25;;;11.21;100.00
11856;BME280;5987;53.140;8.904;2023-03-22T08:39:55;100535.94;;;11.39;100.00
11856;BME280;5987;53.140;8.904;2023-03-22T08:42:59;100534.22;;;11.38;100.00
11856;BME280;5987;53.140;8.904;2023-03-22T08:46:03;100539.75;;;11.12;100.00
11856;BME280;5987;53.140;8.904;2023-03-22T08:49:07;100525.03;;;11.67;100.00
11856;BME280;5987;53.140;8.904;2023-03-22T08:52:13;100541.94;;;11.80;100.00
11856;BME280;5987;53.140;8.904;2023-03-22T08:55:17;100511.66;;;12.10;100.00
11856;BME280;5987;53.140;8.904;2023-03-22T08:58:21;100529.16;;;11.92;100.00
11856;BME280;5987;53.140;8.904;2023-03-22T09:01:25;100521.25;;;11.92;100.00
11856;BME280;5987;53.140;8.904;2023-03-22T09:04:28;100521.31;;;11.90;100.00
11856;BME280;5987;53.140;8.904;2023-03-22T09:07:33;100527.59;;;11.88;100.00
11856;BME280;5987;53.140;8.904;2023-03-22T09:10:37;100517.13;;;12.05;100.00
11856;BME280;5987;53.140;8.904;2023-03-22T09:13:41;100528.28;;;12.10;100.00
11856;BME280;5987;53.140;8.904;2023-03-22T09:16:45;100528.59;;;12.04;100.00
11856;BME280;5987;53.140;8.904;2023-03-22T09:19:49;100519.00;;;12.03;100.00
11856;BME280;5987;53.140;8.904;2023-03-22T09:23:12;100509.69;;;11.96;100.00
11856;BME280;5987;53.140;8.904;2023-03-22T09:26:16;100508.81;;;11.76;100.00
11856;BME280;5987;53.140;8.904;2023-03-22T09:29:20;100498.19;;;11.60;100.00
11856;BME280;5987;53.140;8.904;2023-03-22T09:32:24;100497.22;;;11.61;100.00
11856;BME280;5987;53.140;8.904;2023-03-22T09:35:28;100494.88;;;11.74;100.00
11856;BME280;5987;53.140;8.904;2023-03-22T09:38:33;100497.19;;;12.01;100.00
11856;BME280;5987;53.140;8.904;2023-03-22T09:41:43;100498.41;;;12.11;100.00
11856;BME280;5987;53.140;8.904;2023-03-22T09:44:50;100494.88;;;12.12;100.00
11856;BME280;5987;53.140;8.904;2023-03-22T09:47:55;100494.00;;;12.12;100.00
11856;BME280;5987;53.140;8.904;2023-03-22T09:51:03;100499.66;;;12.04;100.00
11856;BME280;5987;53.140;8.904;2023-03-22T09:54:14;100503.34;;;12.00;100.00
11856;BME280;5987;53.140;8.904;2023-03-22T09:57:26;100510.38;;;11.99;100.00
11856;BME280;5987;53.140;8.904;2023-03-22T10:00:39;100518.84;;;11.87;100.00
11856;BME280;5987;53.140;8.904;2023-03-22T10:08:03;100522.31;;;11.88;100.00
11856;BME280;5987;53.140;8.904;2023-03-22T10:11:23;100520.34;;;11.93;100.00
11856;BME280;5987;53.140;8.904;2023-03-22T10:14:31;100513.25;;;11.95;100.00
11856;BME280;5987;53.140;8.904;2023-03-22T10:17:41;100524.91;;;12.08;100.00
11856;BME280;5987;53.140;8.904;2023-03-22T10:20:54;100522.34;;;12.07;100.00
11856;BME280;5987;53.140;8.904;2023-03-22T10:24:11;100511.66;;;12.10;100.00
11856;BME280;5987;53.140;8.904;2023-03-22T10:27:20;100500.47;;;12.24;100.00
11856;BME280;5987;53.140;8.904;2023-03-22T10:30:29;100504.94;;;12.22;100.00
11856;BME280;5987;53.140;8.904;2023-03-22T10:33:40;100502.34;;;12.39;100.00
11856;BME280;5987;53.140;8.904;2023-03-22T10:36:52;100501.38;;;12.40;100.00
11856;BME280;5987;53.140;8.904;2023-03-22T10:39:57;100497.06;;;12.39;100.00
11856;BME280;5987;53.140;8.904;2023-03-22T10:43:11;100511.06;;;12.40;100.00
11856;BME280;5987;53.140;8.904;2023-03-22T10:46:21;100518.13;;;12.39;100.00
11856;BME280;5987;53.140;8.904;2023-03-22T10:49:32;100516.25;;;12.41;100.00
11856;BME280;5987;53.140;8.904;2023-03-22T10:52:46;100526.94;;;12.38;100.00
11856;BME280;5987;53.140;8.904;2023-03-22T10:55:52;100513.16;;;12.33;100.00
11856;BME280;5987;53.140;8.904;2023-03-22T10:58:58;100521.91;;;12.33;100.00
11856;BME280;5987;53.140;8.904;2023-03-22T11:02:01;100524.75;;;12.29;100.00
11856;BME280;5987;53.140;8.904;2023-03-22T11:05:06;100528.34;;;12.45;100.00
11856;BME280;5987;53.140;8.904;2023-03-22T11:08:13;100520.22;;;12.32;100.00
11856;BME280;5987;53.140;8.904;2023-03-22T11:11:21;100509.28;;;12.23;100.00
11856;BME280;5987;53.140;8.904;2023-03-22T11:14:30;100507.13;;;12.31;100.00
11856;BME280;5987;53.140;8.904;2023-03-22T11:17:37;100496.81;;;12.26;100.00
11856;BME280;5987;53.140;8.904;2023-03-22T11:20:57;100491.66;;;12.42;100.00
11856;BME280;5987;53.140;8.904;2023-03-22T11:24:04;100494.28;;;12.42;100.00
11856;BME280;5987;53.140;8.904;2023-03-22T11:27:21;100499.38;;;12.63;100.00
11856;BME280;5987;53.140;8.904;2023-03-22T11:30:29;100502.34;;;12.74;100.00
11856;BME280;5987;53.140;8.904;2023-03-22T11:33:34;100485.41;;;12.96;100.00
11856;BME280;5987;53.140;8.904;2023-03-22T11:36:44;100489.47;;;12.85;100.00
11856;BME280;5987;53.140;8.904;2023-03-22T11:39:59;100494.47;;;12.90;100.00
11856;BME280;5987;53.140;8.904;2023-03-22T11:43:19;100481.41;;;12.71;100.00
11856;BME280;5987;53.140;8.904;2023-03-22T11:46:25;100483.19;;;12.70;100.00
11856;BME280;5987;53.140;8.904;2023-03-22T11:49:38;100505.03;;;12.55;100.00
11856;BME280;5987;53.140;8.904;2023-03-22T11:52:46;100484.34;;;12.47;100.00
11856;BME280;5987;53.140;8.904;2023-03-22T11:55:53;100506.50;;;12.61;100.00
11856;BME280;5987;53.140;8.904;2023-03-22T11:59:04;100498.75;;;12.40;100.00
11856;BME280;5987;53.140;8.904;2023-03-22T12:02:20;100512.16;;;12.35;100.00
11856;BME280;5987;53.140;8.904;2023-03-22T12:05:28;100500.63;;;12.38;100.00
11856;BME280;5987;53.140;8.904;2023-03-22T12:08:41;100512.97;;;12.18;100.00
11856;BME280;5987;53.140;8.904;2023-03-22T12:11:52;100510.94;;;12.06;100.00
11856;BME280;5987;53.140;8.904;2023-03-22T12:15:05;100512.66;;;12.07;100.00
11856;BME280;5987;53.140;8.904;2023-03-22T12:18:18;100504.53;;;11.93;100.00
11856;BME280;5987;53.140;8.904;2023-03-22T12:21:25;100510.72;;;11.92;100.00
11856;BME280;5987;53.140;8.904;2023-03-22T12:24:31;100508.47;;;11.65;100.00
11856;BME280;5987;53.140;8.904;2023-03-22T12:27:39;100512.06;;;11.43;100.00
11856;BME280;5987;53.140;8.904;2023-03-22T12:30:47;100516.19;;;11.30;100.00
11856;BME280;5987;53.140;8.904;2023-03-22T12:33:56;100510.22;;;11.26;100.00
11856;BME280;5987;53.140;8.904;2023-03-22T12:37:01;100512.28;;;11.20;100.00
11856;BME280;5987;53.140;8.904;2023-03-22T12:40:19;100509.38;;;11.26;100.00
11856;BME280;5987;53.140;8.904;2023-03-22T12:43:41;100505.31;;;11.19;100.00
11856;BME280;5987;53.140;8.904;2023-03-22T12:46:51;100504.66;;;11.13;100.00
11856;BME280;5987;53.140;8.904;2023-03-22T12:50:02;100504.94;;;11.07;100.00
11856;BME280;5987;53.140;8.904;2023-03-22T12:53:12;100509.16;;;11.11;100.00
11856;BME280;5987;53.140;8.904;2023-03-22T12:56:21;100512.03;;;11.05;100.00
11856;BME280;5987;53.140;8.904;2023-03-22T12:59:29;100508.28;;;11.11;100.00
11856;BME280;5987;53.140;8.904;2023-03-22T13:02:35;100509.28;;;11.08;100.00
11856;BME280;5987;53.140;8.904;2023-03-22T13:05:40;100508.41;;;11.08;100.00
11856;BME280;5987;53.140;8.904;2023-03-22T13:09:14;100511.91;;;11.08;100.00
11856;BME280;5987;53.140;8.904;2023-03-22T13:12:32;100516.16;;;11.11;100.00
11856;BME280;5987;53.140;8.904;2023-03-22T13:15:40;100521.84;;;11.21;100.00
11856;BME280;5987;53.140;8.904;2023-03-22T13:19:17;100520.41;;;11.34;100.00
11856;BME280;5987;53.140;8.904;2023-03-22T13:22:27;100511.84;;;11.29;100.00
11856;BME280;5987;53.140;8.904;2023-03-22T13:25:35;100500.94;;;11.38;100.00
11856;BME280;5987;53.140;8.904;2023-03-22T13:28:40;100499.81;;;11.44;100.00
11856;BME280;5987;53.140;8.904;2023-03-22T13:31:53;100494.31;;;11.48;100.00
11856;BME280;5987;53.140;8.904;2023-03-22T13:35:00;100496.69;;;11.55;100.00
11856;BME280;5987;53.140;8.904;2023-03-22T13:38:09;100507.22;;;11.55;100.00
11856;BME280;5987;53.140;8.904;2023-03-22T13:41:23;100505.00;;;11.45;100.00
11856;BME280;5987;53.140;8.904;2023-03-22T13:44:36;100514.16;;;11.37;100.00
11856;BME280;5987;53.140;8.904;2023-03-22T13:47:44;100516.06;;;11.33;100.00
11856;BME280;5987;53.140;8.904;2023-03-22T13:50:49;100516.47;;;11.24;100.00
11856;BME280;5987;53.140;8.904;2023-03-22T13:54:00;100524.59;;;11.38;100.00
11856;BME280;5987;53.140;8.904;2023-03-22T13:57:36;100517.03;;;11.30;100.00
11856;BME280;5987;53.140;8.904;2023-03-22T14:00:58;100501.63;;;11.42;100.00
11856;BME280;5987;53.140;8.904;2023-03-22T14:04:10;100516.94;;;11.33;100.00
11856;BME280;5987;53.140;8.904;2023-03-22T14:07:24;100494.13;;;11.34;100.00
11856;BME280;5987;53.140;8.904;2023-03-22T14:10:40;100497.50;;;11.36;100.00
11856;BME280;5987;53.140;8.904;2023-03-22T14:13:48;100483.53;;;11.55;100.00
11856;BME280;5987;53.140;8.904;2023-03-22T14:17:01;100492.97;;;11.40;100.00
11856;BME280;5987;53.140;8.904;2023-03-22T14:20:11;100485.31;;;11.35;100.00
11856;BME280;5987;53.140;8.904;2023-03-22T14:23:21;100487.28;;;11.30;100.00
11856;BME280;5987;53.140;8.904;2023-03-22T14:26:31;100498.00;;;11.25;100.00
11856;BME280;5987;53.140;8.904;2023-03-22T14:29:42;100500.72;;;11.24;100.00
11856;BME280;5987;53.140;8.904;2023-03-22T14:32:46;100500.44;;;11.30;100.00
11856;BME280;5987;53.140;8.904;2023-03-22T14:35:54;100504.13;;;11.26;100.00
11856;BME280;5987;53.140;8.904;2023-03-22T14:39:06;100508.47;;;11.27;100.00
11856;BME280;5987;53.140;8.904;2023-03-22T14:42:25;100509.78;;;11.16;100.00
11856;BME280;5987;53.140;8.904;2023-03-22T14:45:32;100508.84;;;11.18;100.00
11856;BME280;5987;53.140;8.904;2023-03-22T14:48:36;100509.78;;;11.16;100.00
11856;BME280;5987;53.140;8.904;2023-03-22T14:51:41;100513.06;;;11.22;100.00
11856;BME280;5987;53.140;8.904;2023-03-22T14:54:48;100508.09;;;11.15;100.00
11856;BME280;5987;53.140;8.904;2023-03-22T14:57:57;100515.16;;;11.13;100.00
11856;BME280;5987;53.140;8.904;2023-03-22T15:01:01;100515.03;;;11.16;100.00
11856;BME280;5987;53.140;8.904;2023-03-22T15:04:07;100526.63;;;11.12;100.00
11856;BME280;5987;53.140;8.904;2023-03-22T15:07:11;100527.69;;;11.08;100.00
11856;BME280;5987;53.140;8.904;2023-03-22T15:10:16;100523.19;;;11.10;100.00
11856;BME280;5987;53.140;8.904;2023-03-22T15:13:21;100524.25;;;11.06;100.00
11856;BME280;5987;53.140;8.904;2023-03-22T15:16:29;100526.47;;;11.15;100.00
11856;BME280;5987;53.140;8.904;2023-03-22T15:19:39;100534.75;;;11.06;100.00
11856;BME280;5987;53.140;8.904;2023-03-22T15:22:50;100540.28;;;11.00;100.00
11856;BME280;5987;53.140;8.904;2023-03-22T15:25:52;100527.94;;;11.02;100.00
11856;BME280;5987;53.140;8.904;2023-03-22T15:29:04;100529.78;;;11.00;100.00
11856;BME280;5987;53.140;8.904;2023-03-22T15:32:15;100534.38;;;10.95;100.00
11856;BME280;5987;53.140;8.904;2023-03-22T15:35:19;100534.38;;;10.95;100.00
11856;BME280;5987;53.140;8.904;2023-03-22T15:38:28;100542.53;;;10.89;100.00
11856;BME280;5987;53.140;8.904;2023-03-22T15:41:39;100542.84;;;10.81;100.00
11856;BME280;5987;53.140;8.904;2023-03-22T15:44:52;100542.25;;;10.74;100.00
11856;BME280;5987;53.140;8.904;2023-03-22T15:48:04;100537.31;;;10.67;100.00
11856;BME280;5987;53.140;8.904;2023-03-22T15:51:17;100547.28;;;10.58;100.00
11856;BME280;5987;53.140;8.904;2023-03-22T15:54:30;100545.34;;;10.41;100.00
11856;BME280;5987;53.140;8.904;2023-03-22T15:57:40;100541.03;;;10.40;100.00
11856;BME280;5987;53.140;8.904;2023-03-22T16:00:47;100537.63;;;10.38;100.00
11856;BME280;5987;53.140;8.904;2023-03-22T16:03:54;100526.25;;;10.38;100.00
11856;BME280;5987;53.140;8.904;2023-03-22T16:06:57;100525.13;;;10.43;100.00
11856;BME280;5987;53.140;8.904;2023-03-22T16:09:59;100510.25;;;10.44;100.00
11856;BME280;5987;53.140;8.904;2023-03-22T16:13:08;100519.53;;;10.53;100.00
11856;BME280;5987;53.140;8.904;2023-03-22T16:16:17;100522.69;;;10.61;100.00
11856;BME280;5987;53.140;8.904;2023-03-22T16:19:20;100512.56;;;10.52;100.00
11856;BME280;5987;53.140;8.904;2023-03-22T16:22:22;100512.69;;;10.49;100.00
11856;BME280;5987;53.140;8.904;2023-03-22T16:25:25;100518.78;;;10.49;100.00
11856;BME280;5987;53.140;8.904;2023-03-22T16:28:27;100515.72;;;10.60;100.00
11856;BME280;5987;53.140;8.904;2023-03-22T16:31:31;100517.44;;;10.61;100.00
11856;BME280;5987;53.140;8.904;2023-03-22T16:34:34;100512.31;;;10.58;100.00
11856;BME280;5987;53.140;8.904;2023-03-22T16:37:37;100519.91;;;10.64;100.00